sensor_id;sensor_type;location;lat;lon;timestamp;P1;durP1;ratioP1;P2;durP2;ratioP2
21589;SDS011;10957;50.968;6.828;2023-09-08T00:03:37;3.30;;;3.10;;
21589;SDS011;10957;50.968;6.828;2023-09-08T00:08:38;2.67;;;2.58;;
21589;SDS011;10957;50.968;6.828;2023-09-08T00:13:39;3.58;;;3.33;;
21589;SDS011;10957;50.968;6.828;2023-09-08T00:18:41;3.42;;;3.20;;
21589;SDS011;10957;50.968;6.828;2023-09-08T00:23:42;2.97;;;2.88;;
21589;SDS011;10957;50.968;6.828;2023-09-08T00:28:43;3.63;;;3.42;;
21589;SDS011;10957;50.968;6.828;2023-09-08T00:33:44;3.38;;;3.15;;
21589;SDS011;10957;50.968;6.828;2023-09-08T00:38:46;3.65;;;3.38;;
21589;SDS011;10957;50.968;6.828;2023-09-08T00:43:47;3.38;;;3.17;;
21589;SDS011;10957;50.968;6.828;2023-09-08T00:48:48;2.88;;;2.78;;
21589;SDS011;10957;50.968;6.828;2023-09-08T00:53:50;3.33;;;3.13;;
21589;SDS011;10957;50.968;6.828;2023-09-08T00:58:51;2.72;;;2.63;;
21589;SDS011;10957;50.968;6.828;2023-09-08T01:03:53;3.50;;;3.30;;
21589;SDS011;10957;50.968;6.828;2023-09-08T01:08:54;3.22;;;3.03;;
21589;SDS011;10957;50.968;6.828;2023-09-08T01:13:56;3.00;;;2.83;;
21589;SDS011;10957;50.968;6.828;2023-09-08T01:18:57;4.57;;;3.53;;
21589;SDS011;10957;50.968;6.828;2023-09-08T01:29:27;3.05;;;2.92;;
21589;SDS011;10957;50.968;6.828;2023-09-08T01:34:30;3.00;;;2.80;;
21589;SDS011;10957;50.968;6.828;2023-09-08T01:39:32;3.15;;;3.05;;
21589;SDS011;10957;50.968;6.828;2023-09-08T01:44:33;3.20;;;3.10;;
21589;SDS011;10957;50.968;6.828;2023-09-08T01:49:34;2.90;;;2.80;;
21589;SDS011;10957;50.968;6.828;2023-09-08T01:54:36;3.28;;;3.08;;
21589;SDS011;10957;50.968;6.828;2023-09-08T01:59:37;3.00;;;2.90;;
21589;SDS011;10957;50.968;6.828;2023-09-08T02:04:39;3.05;;;2.95;;
21589;SDS011;10957;50.968;6.828;2023-09-08T02:09:40;2.83;;;2.70;;
21589;SDS011;10957;50.968;6.828;2023-09-08T02:14:42;3.00;;;2.90;;
21589;SDS011;10957;50.968;6.828;2023-09-08T02:19:44;3.10;;;3.00;;
21589;SDS011;10957;50.968;6.828;2023-09-08T02:24:45;2.95;;;2.85;;
21589;SDS011;10957;50.968;6.828;2023-09-08T02:29:47;3.90;;;3.60;;
21589;SDS011;10957;50.968;6.828;2023-09-08T02:34:48;4.00;;;3.80;;
21589;SDS011;10957;50.968;6.828;2023-09-08T02:39:50;3.45;;;3.20;;
21589;SDS011;10957;50.968;6.828;2023-09-08T02:44:52;3.03;;;2.90;;
21589;SDS011;10957;50.968;6.828;2023-09-08T02:49:54;3.42;;;3.22;;
21589;SDS011;10957;50.968;6.828;2023-09-08T02:54:55;3.33;;;3.22;;
21589;SDS011;10957;50.968;6.828;2023-09-08T02:59:56;3.20;;;3.10;;
21589;SDS011;10957;50.968;6.828;2023-09-08T03:04:58;3.10;;;2.90;;
21589;SDS011;10957;50.968;6.828;2023-09-08T03:10:00;2.88;;;2.78;;
21589;SDS011;10957;50.968;6.828;2023-09-08T03:15:02;4.18;;;3.75;;
21589;SDS011;10957;50.968;6.828;2023-09-08T03:20:03;3.03;;;2.92;;
21589;SDS011;10957;50.968;6.828;2023-09-08T03:25:08;3.15;;;3.05;;
21589;SDS011;10957;50.968;6.828;2023-09-08T03:30:09;3.20;;;3.00;;
21589;SDS011;10957;50.968;6.828;2023-09-08T03:35:11;4.38;;;3.20;;
21589;SDS011;10957;50.968;6.828;2023-09-08T03:40:13;3.45;;;3.25;;
21589;SDS011;10957;50.968;6.828;2023-09-08T03:45:15;3.55;;;3.35;;
21589;SDS011;10957;50.968;6.828;2023-09-08T03:50:16;4.07;;;3.85;;
21589;SDS011;10957;50.968;6.828;2023-09-08T03:55:18;3.08;;;2.97;;
21589;SDS011;10957;50.968;6.828;2023-09-08T04:00:19;3.17;;;3.03;;
21589;SDS011;10957;50.968;6.828;2023-09-08T04:05:22;3.10;;;2.90;;
21589;SDS011;10957;50.968;6.828;2023-09-08T04:10:24;3.08;;;2.97;;
21589;SDS011;10957;50.968;6.828;2023-09-08T04:15:25;3.88;;;3.63;;
21589;SDS011;10957;50.968;6.828;2023-09-08T04:20:27;2.95;;;2.80;;
21589;SDS011;10957;50.968;6.828;2023-09-08T04:25:28;3.63;;;3.42;;
21589;SDS011;10957;50.968;6.828;2023-09-08T04:30:30;3.65;;;3.45;;
21589;SDS011;10957;50.968;6.828;2023-09-08T04:35:31;3.65;;;3.45;;
21589;SDS011;10957;50.968;6.828;2023-09-08T04:40:32;2.70;;;2.60;;
21589;SDS011;10957;50.968;6.828;2023-09-08T04:45:34;2.80;;;2.70;;
21589;SDS011;10957;50.968;6.828;2023-09-08T04:50:35;2.90;;;2.80;;
21589;SDS011;10957;50.968;6.828;2023-09-08T04:55:36;3.13;;;2.92;;
21589;SDS011;10957;50.968;6.828;2023-09-08T05:00:39;4.15;;;3.92;;
21589;SDS011;10957;50.968;6.828;2023-09-08T05:05:41;2.95;;;2.85;;
21589;SDS011;10957;50.968;6.828;2023-09-08T05:10:46;3.17;;;2.97;;
21589;SDS011;10957;50.968;6.828;2023-09-08T05:15:47;2.97;;;2.83;;
21589;SDS011;10957;50.968;6.828;2023-09-08T05:20:50;2.80;;;2.70;;
21589;SDS011;10957;50.968;6.828;2023-09-08T05:25:52;3.33;;;3.13;;
21589;SDS011;10957;50.968;6.828;2023-09-08T05:30:53;2.83;;;2.72;;
21589;SDS011;10957;50.968;6.828;2023-09-08T05:35:55;4.07;;;3.70;;
21589;SDS011;10957;50.968;6.828;2023-09-08T05:40:56;2.92;;;2.83;;
21589;SDS011;10957;50.968;6.828;2023-09-08T05:45:57;3.45;;;3.22;;
21589;SDS011;10957;50.968;6.828;2023-09-08T05:50:59;2.80;;;2.60;;
21589;SDS011;10957;50.968;6.828;2023-09-08T05:56:03;3.72;;;3.33;;
21589;SDS011;10957;50.968;6.828;2023-09-08T06:01:05;3.03;;;2.83;;
21589;SDS011;10957;50.968;6.828;2023-09-08T06:06:08;2.95;;;2.85;;
21589;SDS011;10957;50.968;6.828;2023-09-08T06:11:11;3.78;;;3.58;;
21589;SDS011;10957;50.968;6.828;2023-09-08T06:16:13;3.13;;;3.03;;
21589;SDS011;10957;50.968;6.828;2023-09-08T06:21:14;3.17;;;2.97;;
21589;SDS011;10957;50.968;6.828;2023-09-08T06:26:16;3.00;;;2.80;;
21589;SDS011;10957;50.968;6.828;2023-09-08T06:31:18;4.05;;;3.72;;
21589;SDS011;10957;50.968;6.828;2023-09-08T06:36:19;3.30;;;3.20;;
21589;SDS011;10957;50.968;6.828;2023-09-08T06:41:22;3.75;;;3.45;;
21589;SDS011;10957;50.968;6.828;2023-09-08T06:46:25;3.63;;;3.38;;
21589;SDS011;10957;50.968;6.828;2023-09-08T06:51:26;3.05;;;2.95;;
21589;SDS011;10957;50.968;6.828;2023-09-08T06:56:28;3.42;;;3.22;;
21589;SDS011;10957;50.968;6.828;2023-09-08T07:01:31;3.45;;;3.25;;
21589;SDS011;10957;50.968;6.828;2023-09-08T07:06:33;3.17;;;3.08;;
21589;SDS011;10957;50.968;6.828;2023-09-08T07:11:36;5.90;;;4.68;;
21589;SDS011;10957;50.968;6.828;2023-09-08T07:16:38;3.65;;;3.45;;
21589;SDS011;10957;50.968;6.828;2023-09-08T07:21:41;3.42;;;3.22;;
21589;SDS011;10957;50.968;6.828;2023-09-08T07:26:42;4.78;;;4.15;;
21589;SDS011;10957;50.968;6.828;2023-09-08T07:31:44;26.15;;;3.97;;
21589;SDS011;10957;50.968;6.828;2023-09-08T07:36:45;3.92;;;3.63;;
21589;SDS011;10957;50.968;6.828;2023-09-08T07:41:47;3.78;;;3.47;;
21589;SDS011;10957;50.968;6.828;2023-09-08T07:46:49;3.10;;;3.00;;
21589;SDS011;10957;50.968;6.828;2023-09-08T07:51:52;3.97;;;3.70;;
21589;SDS011;10957;50.968;6.828;2023-09-08T07:56:53;3.35;;;3.15;;
21589;SDS011;10957;50.968;6.828;2023-09-08T08:01:54;3.38;;;3.22;;
21589;SDS011;10957;50.968;6.828;2023-09-08T08:06:56;3.75;;;3.55;;
21589;SDS011;10957;50.968;6.828;2023-09-08T08:11:57;3.45;;;3.35;;
21589;SDS011;10957;50.968;6.828;2023-09-08T08:16:58;4.00;;;3.80;;
21589;SDS011;10957;50.968;6.828;2023-09-08T08:21:59;4.22;;;3.92;;
21589;SDS011;10957;50.968;6.828;2023-09-08T08:27:01;3.90;;;3.70;;
21589;SDS011;10957;50.968;6.828;2023-09-08T08:32:03;3.53;;;3.42;;
21589;SDS011;10957;50.968;6.828;2023-09-08T08:37:05;4.82;;;4.55;;
21589;SDS011;10957;50.968;6.828;2023-09-08T08:42:06;4.45;;;4.15;;
21589;SDS011;10957;50.968;6.828;2023-09-08T08:47:10;4.28;;;3.97;;
21589;SDS011;10957;50.968;6.828;2023-09-08T08:52:13;4.40;;;4.18;;
21589;SDS011;10957;50.968;6.828;2023-09-08T08:57:15;4.10;;;3.78;;
21589;SDS011;10957;50.968;6.828;2023-09-08T09:02:17;4.15;;;3.95;;
21589;SDS011;10957;50.968;6.828;2023-09-08T09:07:19;4.50;;;4.20;;
21589;SDS011;10957;50.968;6.828;2023-09-08T09:12:21;3.90;;;3.70;;
21589;SDS011;10957;50.968;6.828;2023-09-08T09:17:22;7.38;;;4.07;;
21589;SDS011;10957;50.968;6.828;2023-09-08T09:22:24;3.78;;;3.55;;
21589;SDS011;10957;50.968;6.828;2023-09-08T09:27:37;4.05;;;3.85;;
21589;SDS011;10957;50.968;6.828;2023-09-08T09:32:41;4.22;;;3.92;;
21589;SDS011;10957;50.968;6.828;2023-09-08T09:37:43;4.47;;;4.20;;
21589;SDS011;10957;50.968;6.828;2023-09-08T09:42:45;4.43;;;4.22;;
21589;SDS011;10957;50.968;6.828;2023-09-08T09:47:47;4.55;;;4.25;;
21589;SDS011;10957;50.968;6.828;2023-09-08T09:52:49;4.28;;;4.00;;
21589;SDS011;10957;50.968;6.828;2023-09-08T09:57:51;4.03;;;3.83;;
21589;SDS011;10957;50.968;6.828;2023-09-08T10:02:56;4.38;;;4.00;;
21589;SDS011;10957;50.968;6.828;2023-09-08T10:07:58;6.22;;;3.72;;
21589;SDS011;10957;50.968;6.828;2023-09-08T10:13:03;3.75;;;3.55;;
21589;SDS011;10957;50.968;6.828;2023-09-08T10:18:07;3.45;;;3.25;;
21589;SDS011;10957;50.968;6.828;2023-09-08T10:23:12;4.75;;;4.43;;
21589;SDS011;10957;50.968;6.828;2023-09-08T10:28:19;3.83;;;3.60;;
21589;SDS011;10957;50.968;6.828;2023-09-08T10:33:22;4.13;;;3.92;;
21589;SDS011;10957;50.968;6.828;2023-09-08T10:38:30;5.28;;;4.88;;
21589;SDS011;10957;50.968;6.828;2023-09-08T10:43:33;4.80;;;4.45;;
21589;SDS011;10957;50.968;6.828;2023-09-08T10:48:44;4.75;;;4.35;;
21589;SDS011;10957;50.968;6.828;2023-09-08T10:53:49;4.55;;;4.25;;
21589;SDS011;10957;50.968;6.828;2023-09-08T10:58:51;4.15;;;3.95;;
21589;SDS011;10957;50.968;6.828;2023-09-08T11:03:53;4.55;;;4.25;;
21589;SDS011;10957;50.968;6.828;2023-09-08T11:08:54;5.10;;;4.80;;
21589;SDS011;10957;50.968;6.828;2023-09-08T11:13:56;5.07;;;4.78;;
21589;SDS011;10957;50.968;6.828;2023-09-08T11:18:58;5.28;;;4.97;;
21589;SDS011;10957;50.968;6.828;2023-09-08T11:23:59;4.75;;;4.45;;
21589;SDS011;10957;50.968;6.828;2023-09-08T11:29:01;4.50;;;4.20;;
21589;SDS011;10957;50.968;6.828;2023-09-08T11:34:03;4.65;;;4.45;;
21589;SDS011;10957;50.968;6.828;2023-09-08T11:39:06;4.25;;;4.05;;
21589;SDS011;10957;50.968;6.828;2023-09-08T11:44:08;4.80;;;4.50;;
21589;SDS011;10957;50.968;6.828;2023-09-08T11:49:10;4.63;;;4.32;;
21589;SDS011;10957;50.968;6.828;2023-09-08T11:54:11;4.80;;;4.50;;
21589;SDS011;10957;50.968;6.828;2023-09-08T11:59:13;4.20;;;4.00;;
21589;SDS011;10957;50.968;6.828;2023-09-08T12:04:18;4.43;;;4.20;;
21589;SDS011;10957;50.968;6.828;2023-09-08T12:09:21;4.60;;;4.38;;
21589;SDS011;10957;50.968;6.828;2023-09-08T12:14:22;4.78;;;4.47;;
21589;SDS011;10957;50.968;6.828;2023-09-08T12:19:30;4.72;;;4.40;;
21589;SDS011;10957;50.968;6.828;2023-09-08T12:30:00;5.00;;;4.70;;
21589;SDS011;10957;50.968;6.828;2023-09-08T12:35:03;4.90;;;4.63;;
21589;SDS011;10957;50.968;6.828;2023-09-08T12:40:06;5.72;;;5.05;;
21589;SDS011;10957;50.968;6.828;2023-09-08T12:45:07;4.90;;;4.60;;
21589;SDS011;10957;50.968;6.828;2023-09-08T12:50:09;5.35;;;5.00;;
21589;SDS011;10957;50.968;6.828;2023-09-08T12:55:11;5.45;;;5.05;;
21589;SDS011;10957;50.968;6.828;2023-09-08T13:00:12;5.03;;;4.68;;
21589;SDS011;10957;50.968;6.828;2023-09-08T13:05:14;5.05;;;4.70;;
21589;SDS011;10957;50.968;6.828;2023-09-08T13:10:16;4.80;;;4.43;;
21589;SDS011;10957;50.968;6.828;2023-09-08T13:15:17;4.53;;;4.28;;
21589;SDS011;10957;50.968;6.828;2023-09-08T13:20:18;5.65;;;5.15;;
21589;SDS011;10957;50.968;6.828;2023-09-08T13:25:20;4.57;;;4.18;;
21589;SDS011;10957;50.968;6.828;2023-09-08T13:30:21;4.55;;;4.25;;
21589;SDS011;10957;50.968;6.828;2023-09-08T13:35:29;4.78;;;4.38;;
21589;SDS011;10957;50.968;6.828;2023-09-08T13:40:48;5.20;;;4.75;;
21589;SDS011;10957;50.968;6.828;2023-09-08T13:45:49;5.00;;;4.68;;
21589;SDS011;10957;50.968;6.828;2023-09-08T13:50:51;4.88;;;4.57;;
21589;SDS011;10957;50.968;6.828;2023-09-08T13:55:52;4.25;;;4.00;;
21589;SDS011;10957;50.968;6.828;2023-09-08T14:00:53;4.47;;;4.18;;
21589;SDS011;10957;50.968;6.828;2023-09-08T14:05:55;4.90;;;4.47;;
21589;SDS011;10957;50.968;6.828;2023-09-08T14:10:56;4.93;;;4.70;;
21589;SDS011;10957;50.968;6.828;2023-09-08T14:15:58;4.30;;;3.78;;
21589;SDS011;10957;50.968;6.828;2023-09-08T14:20:59;4.97;;;4.68;;
21589;SDS011;10957;50.968;6.828;2023-09-08T14:26:01;4.05;;;3.85;;
21589;SDS011;10957;50.968;6.828;2023-09-08T14:31:02;6.30;;;5.97;;
21589;SDS011;10957;50.968;6.828;2023-09-08T14:36:03;4.00;;;3.80;;
21589;SDS011;10957;50.968;6.828;2023-09-08T14:41:05;5.32;;;4.90;;
21589;SDS011;10957;50.968;6.828;2023-09-08T14:46:06;4.70;;;4.40;;
21589;SDS011;10957;50.968;6.828;2023-09-08T14:51:07;4.90;;;4.60;;
21589;SDS011;10957;50.968;6.828;2023-09-08T14:56:09;5.22;;;4.93;;
21589;SDS011;10957;50.968;6.828;2023-09-08T15:01:10;6.78;;;6.18;;
21589;SDS011;10957;50.968;6.828;2023-09-08T15:06:14;5.70;;;5.30;;
21589;SDS011;10957;50.968;6.828;2023-09-08T15:11:16;5.10;;;4.80;;
21589;SDS011;10957;50.968;6.828;2023-09-08T15:16:17;4.85;;;4.55;;
21589;SDS011;10957;50.968;6.828;2023-09-08T15:21:18;5.38;;;4.97;;
21589;SDS011;10957;50.968;6.828;2023-09-08T15:26:24;5.13;;;4.72;;
21589;SDS011;10957;50.968;6.828;2023-09-08T15:31:26;4.45;;;4.25;;
21589;SDS011;10957;50.968;6.828;2023-09-08T15:36:27;4.25;;;4.05;;
21589;SDS011;10957;50.968;6.828;2023-09-08T15:41:28;4.97;;;4.68;;
21589;SDS011;10957;50.968;6.828;2023-09-08T15:46:29;4.05;;;3.85;;
21589;SDS011;10957;50.968;6.828;2023-09-08T15:51:31;6.15;;;4.10;;
21589;SDS011;10957;50.968;6.828;2023-09-08T15:56:32;4.45;;;4.15;;
21589;SDS011;10957;50.968;6.828;2023-09-08T16:01:33;4.47;;;4.20;;
21589;SDS011;10957;50.968;6.828;2023-09-08T16:06:35;4.78;;;4.47;;
21589;SDS011;10957;50.968;6.828;2023-09-08T16:11:37;4.75;;;4.40;;
21589;SDS011;10957;50.968;6.828;2023-09-08T16:16:38;4.18;;;3.88;;
21589;SDS011;10957;50.968;6.828;2023-09-08T16:21:41;5.10;;;4.70;;
21589;SDS011;10957;50.968;6.828;2023-09-08T16:26:43;8.30;;;4.35;;
21589;SDS011;10957;50.968;6.828;2023-09-08T16:31:44;4.50;;;4.30;;
21589;SDS011;10957;50.968;6.828;2023-09-08T16:36:45;5.25;;;4.88;;
21589;SDS011;10957;50.968;6.828;2023-09-08T16:41:47;16.02;;;7.07;;
21589;SDS011;10957;50.968;6.828;2023-09-08T16:46:48;5.45;;;4.97;;
21589;SDS011;10957;50.968;6.828;2023-09-08T16:51:49;4.88;;;4.57;;
21589;SDS011;10957;50.968;6.828;2023-09-08T16:56:54;4.55;;;4.25;;
21589;SDS011;10957;50.968;6.828;2023-09-08T17:01:55;4.70;;;4.32;;
21589;SDS011;10957;50.968;6.828;2023-09-08T17:06:58;4.53;;;4.22;;
21589;SDS011;10957;50.968;6.828;2023-09-08T17:11:59;4.38;;;4.03;;
21589;SDS011;10957;50.968;6.828;2023-09-08T17:17:00;4.47;;;4.28;;
21589;SDS011;10957;50.968;6.828;2023-09-08T17:22:02;4.47;;;4.18;;
21589;SDS011;10957;50.968;6.828;2023-09-08T17:27:04;4.75;;;4.43;;
21589;SDS011;10957;50.968;6.828;2023-09-08T17:32:05;3.97;;;3.78;;
21589;SDS011;10957;50.968;6.828;2023-09-08T17:37:08;3.65;;;3.45;;
21589;SDS011;10957;50.968;6.828;2023-09-08T17:42:17;3.80;;;3.60;;
21589;SDS011;10957;50.968;6.828;2023-09-08T17:47:19;3.97;;;3.78;;
21589;SDS011;10957;50.968;6.828;2023-09-08T17:52:20;4.32;;;4.05;;
21589;SDS011;10957;50.968;6.828;2023-09-08T17:57:21;3.92;;;3.63;;
21589;SDS011;10957;50.968;6.828;2023-09-08T18:02:23;3.75;;;3.42;;
21589;SDS011;10957;50.968;6.828;2023-09-08T18:07:25;3.88;;;3.55;;
21589;SDS011;10957;50.968;6.828;2023-09-08T18:12:27;3.53;;;3.33;;
21589;SDS011;10957;50.968;6.828;2023-09-08T18:17:28;3.63;;;3.45;;
21589;SDS011;10957;50.968;6.828;2023-09-08T18:22:37;4.13;;;3.83;;
21589;SDS011;10957;50.968;6.828;2023-09-08T18:27:38;3.63;;;3.40;;
21589;SDS011;10957;50.968;6.828;2023-09-08T18:32:39;3.45;;;3.25;;
21589;SDS011;10957;50.968;6.828;2023-09-08T18:37:43;4.78;;;4.43;;
21589;SDS011;10957;50.968;6.828;2023-09-08T18:42:45;3.72;;;3.53;;
21589;SDS011;10957;50.968;6.828;2023-09-08T18:47:46;3.40;;;3.20;;
21589;SDS011;10957;50.968;6.828;2023-09-08T18:52:48;3.50;;;3.30;;
21589;SDS011;10957;50.968;6.828;2023-09-08T18:57:49;3.83;;;3.63;;
21589;SDS011;10957;50.968;6.828;2023-09-08T19:02:51;4.03;;;3.80;;
21589;SDS011;10957;50.968;6.828;2023-09-08T19:07:52;3.83;;;3.63;;
21589;SDS011;10957;50.968;6.828;2023-09-08T19:12:53;4.20;;;2.95;;
21589;SDS011;10957;50.968;6.828;2023-09-08T19:17:55;3.75;;;3.55;;
21589;SDS011;10957;50.968;6.828;2023-09-08T19:22:56;3.65;;;3.45;;
21589;SDS011;10957;50.968;6.828;2023-09-08T19:27:57;3.55;;;3.35;;
21589;SDS011;10957;50.968;6.828;2023-09-08T19:32:59;3.33;;;3.13;;
21589;SDS011;10957;50.968;6.828;2023-09-08T19:38:00;4.00;;;3.67;;
21589;SDS011;10957;50.968;6.828;2023-09-08T19:43:01;3.83;;;3.55;;
21589;SDS011;10957;50.968;6.828;2023-09-08T19:48:04;3.38;;;3.17;;
21589;SDS011;10957;50.968;6.828;2023-09-08T19:53:06;3.47;;;3.25;;
21589;SDS011;10957;50.968;6.828;2023-09-08T19:58:07;4.70;;;4.25;;
21589;SDS011;10957;50.968;6.828;2023-09-08T20:03:08;7.55;;;5.75;;
21589;SDS011;10957;50.968;6.828;2023-09-08T20:08:10;8.65;;;6.93;;
21589;SDS011;10957;50.968;6.828;2023-09-08T20:13:12;8.52;;;6.47;;
21589;SDS011;10957;50.968;6.828;2023-09-08T20:18:13;7.90;;;5.53;;
21589;SDS011;10957;50.968;6.828;2023-09-08T20:23:14;10.40;;;5.88;;
21589;SDS011;10957;50.968;6.828;2023-09-08T20:28:16;14.55;;;3.63;;
21589;SDS011;10957;50.968;6.828;2023-09-08T20:33:17;3.95;;;3.58;;
21589;SDS011;10957;50.968;6.828;2023-09-08T20:38:19;4.10;;;3.72;;
21589;SDS011;10957;50.968;6.828;2023-09-08T20:43:20;3.00;;;2.88;;
21589;SDS011;10957;50.968;6.828;2023-09-08T20:48:22;3.95;;;3.65;;
21589;SDS011;10957;50.968;6.828;2023-09-08T20:53:23;3.30;;;3.10;;
21589;SDS011;10957;50.968;6.828;2023-09-08T20:58:25;3.55;;;3.25;;
21589;SDS011;10957;50.968;6.828;2023-09-08T21:03:27;5.32;;;4.68;;
21589;SDS011;10957;50.968;6.828;2023-09-08T21:08:29;3.63;;;3.42;;
21589;SDS011;10957;50.968;6.828;2023-09-08T21:13:33;4.18;;;3.88;;
21589;SDS011;10957;50.968;6.828;2023-09-08T21:18:34;4.45;;;4.10;;
21589;SDS011;10957;50.968;6.828;2023-09-08T21:23:35;4.18;;;3.85;;
21589;SDS011;10957;50.968;6.828;2023-09-08T21:28:37;4.10;;;3.80;;
21589;SDS011;10957;50.968;6.828;2023-09-08T21:33:38;3.80;;;3.50;;
21589;SDS011;10957;50.968;6.828;2023-09-08T21:38:39;6.07;;;4.18;;
21589;SDS011;10957;50.968;6.828;2023-09-08T21:43:41;3.17;;;2.97;;
21589;SDS011;10957;50.968;6.828;2023-09-08T21:48:42;6.10;;;5.20;;
21589;SDS011;10957;50.968;6.828;2023-09-08T21:53:43;4.72;;;4.32;;
21589;SDS011;10957;50.968;6.828;2023-09-08T21:58:44;3.97;;;3.60;;
21589;SDS011;10957;50.968;6.828;2023-09-08T22:03:46;3.20;;;3.05;;
21589;SDS011;10957;50.968;6.828;2023-09-08T22:08:47;5.18;;;4.88;;
21589;SDS011;10957;50.968;6.828;2023-09-08T22:13:49;5.72;;;4.07;;
21589;SDS011;10957;50.968;6.828;2023-09-08T22:18:51;5.65;;;3.80;;
21589;SDS011;10957;50.968;6.828;2023-09-08T22:23:52;4.53;;;3.88;;
21589;SDS011;10957;50.968;6.828;2023-09-08T22:28:54;5.13;;;4.75;;
21589;SDS011;10957;50.968;6.828;2023-09-08T22:33:55;3.80;;;3.60;;
21589;SDS011;10957;50.968;6.828;2023-09-08T22:38:56;5.78;;;4.60;;
21589;SDS011;10957;50.968;6.828;2023-09-08T22:43:57;5.20;;;4.53;;
21589;SDS011;10957;50.968;6.828;2023-09-08T22:48:59;4.38;;;4.07;;
21589;SDS011;10957;50.968;6.828;2023-09-08T22:54:01;3.65;;;3.45;;
21589;SDS011;10957;50.968;6.828;2023-09-08T22:59:03;4.15;;;3.85;;
21589;SDS011;10957;50.968;6.828;2023-09-08T23:04:04;3.45;;;3.25;;
21589;SDS011;10957;50.968;6.828;2023-09-08T23:09:06;3.67;;;3.47;;
21589;SDS011;10957;50.968;6.828;2023-09-08T23:14:11;3.88;;;3.65;;
21589;SDS011;10957;50.968;6.828;2023-09-08T23:19:12;5.22;;;4.50;;
21589;SDS011;10957;50.968;6.828;2023-09-08T23:24:13;3.97;;;3.70;;
21589;SDS011;10957;50.968;6.828;2023-09-08T23:29:14;3.97;;;3.78;;
21589;SDS011;10957;50.968;6.828;2023-09-08T23:34:16;4.22;;;3.92;;
21589;SDS011;10957;50.968;6.828;2023-09-08T23:39:17;3.88;;;3.67;;
21589;SDS011;10957;50.968;6.828;2023-09-08T23:44:19;3.05;;;2.80;;
21589;SDS011;10957;50.968;6.828;2023-09-08T23:49:20;4.13;;;3.92;;
21589;SDS011;10957;50.968;6.828;2023-09-08T23:54:22;3.78;;;3.38;;
21589;SDS011;10957;50.968;6.828;2023-09-08T23:59:23;3.58;;;3.38;;
